createdAt,value
2019-05-05T00:01:34.473Z,13.99
2019-05-05T00:04:16.688Z,14.03
2019-05-05T00:06:45.360Z,14.09
2019-05-05T00:09:14.609Z,14.08
2019-05-05T00:11:48.244Z,14.08
2019-05-05T00:14:18.517Z,14.06
2019-05-05T00:17:05.430Z,14.08
2019-05-05T00:19:35.880Z,14.13
2019-05-05T00:22:04.658Z,14.12
2019-05-05T00:24:35.063Z,14.09
2019-05-05T00:27:04.358Z,14.12
2019-05-05T00:29:34.717Z,14.10
2019-05-05T00:32:04.958Z,14.14
2019-05-05T00:34:35.016Z,14.16
2019-05-05T00:37:04.686Z,14.16
2019-05-05T00:39:34.506Z,14.24
2019-05-05T00:42:04.771Z,14.36
2019-05-05T00:44:35.223Z,14.35
2019-05-05T00:47:08.578Z,14.41
2019-05-05T00:49:46.532Z,14.41
2019-05-05T00:52:09.278Z,14.47
2019-05-05T00:54:37.950Z,14.50
2019-05-05T00:57:06.637Z,14.58
2019-05-05T00:59:35.280Z,14.63
2019-05-05T01:02:05.547Z,14.67
2019-05-05T01:04:55.073Z,14.72
2019-05-05T01:07:24.766Z,14.77
2019-05-05T01:09:54.266Z,14.77
2019-05-05T01:12:24.473Z,14.72
2019-05-05T01:14:55.099Z,14.77
2019-05-05T01:17:25.295Z,14.80
2019-05-05T01:20:03.433Z,14.76
2019-05-05T01:22:24.988Z,14.77
2019-05-05T01:24:55.353Z,14.78
2019-05-05T01:27:25.364Z,14.78
2019-05-05T01:29:54.700Z,14.73
2019-05-05T01:32:25.048Z,14.70
2019-05-05T01:34:54.932Z,14.73
2019-05-05T01:37:27.999Z,14.70
2019-05-05T01:39:58.575Z,14.72
2019-05-05T01:42:27.246Z,14.73
2019-05-05T01:44:56.055Z,14.71
2019-05-05T01:47:25.442Z,14.75
2019-05-05T01:49:54.549Z,14.69
2019-05-05T01:52:25.302Z,14.61
2019-05-05T01:54:54.800Z,14.59
2019-05-05T01:57:25.162Z,14.58
2019-05-05T01:59:55.268Z,14.57
2019-05-05T02:02:25.073Z,14.60
2019-05-05T02:04:55.355Z,14.67
2019-05-05T02:07:24.990Z,14.49
2019-05-05T02:09:55.402Z,14.46
2019-05-05T02:12:24.731Z,14.36
2019-05-05T02:14:55.138Z,14.27
2019-05-05T02:17:24.660Z,14.27
2019-05-05T02:19:54.974Z,14.23
2019-05-05T02:22:25.261Z,14.24
2019-05-05T02:24:55.105Z,14.15
2019-05-05T02:27:25.260Z,14.16
2019-05-05T02:30:07.684Z,14.26
2019-05-05T02:32:37.971Z,14.19
2019-05-05T02:35:09.843Z,14.22
2019-05-05T02:37:38.510Z,14.18
2019-05-05T02:40:11.324Z,14.23
2019-05-05T02:42:41.362Z,14.26
2019-05-05T02:45:12.247Z,14.25
2019-05-05T02:47:46.797Z,14.18
2019-05-05T02:50:16.546Z,14.16
2019-05-05T02:52:47.606Z,14.07
2019-05-05T02:55:18.137Z,14.09
2019-05-05T02:57:47.360Z,14.12
2019-05-05T03:00:24.109Z,14.17
2019-05-05T03:02:53.902Z,14.15
2019-05-05T03:05:23.579Z,14.16
2019-05-05T03:07:54.308Z,14.19
2019-05-05T03:10:24.579Z,14.23
2019-05-05T03:12:54.392Z,14.21
2019-05-05T03:15:52.285Z,14.22
2019-05-05T03:18:21.713Z,14.27
2019-05-05T03:21:02.347Z,14.15
2019-05-05T03:23:21.610Z,14.10
2019-05-05T03:25:51.153Z,14.13
2019-05-05T03:28:19.877Z,14.14
2019-05-05T03:30:48.648Z,14.17
2019-05-05T03:33:17.370Z,14.22
2019-05-05T03:35:46.434Z,14.20
2019-05-05T03:38:16.145Z,14.23
2019-05-05T03:40:47.215Z,14.20
2019-05-05T03:43:17.731Z,14.22
2019-05-05T03:45:57.499Z,14.27
2019-05-05T03:48:26.351Z,14.27
2019-05-05T03:50:55.153Z,14.27
2019-05-05T03:53:24.866Z,14.30
2019-05-05T03:55:54.636Z,14.33
2019-05-05T03:58:24.128Z,14.37
2019-05-05T04:00:55.745Z,14.44
2019-05-05T04:03:24.381Z,14.50
2019-05-05T04:06:00.593Z,14.58
2019-05-05T04:08:29.601Z,14.61
2019-05-05T04:10:58.229Z,14.68
2019-05-05T04:13:28.471Z,14.72
2019-05-05T04:16:08.077Z,14.76
2019-05-05T04:18:44.084Z,14.82
2019-05-05T04:21:14.529Z,14.86
2019-05-05T04:23:44.224Z,14.91
2019-05-05T04:26:14.267Z,14.97
2019-05-05T04:28:43.636Z,15.00
2019-05-05T04:31:13.576Z,15.05
2019-05-05T04:33:44.356Z,14.94
2019-05-05T04:36:14.486Z,14.96
2019-05-05T04:38:43.984Z,14.98
2019-05-05T04:41:14.012Z,15.04
2019-05-05T04:43:44.184Z,15.09
2019-05-05T04:46:14.057Z,15.05
2019-05-05T04:48:47.241Z,15.15
2019-05-05T04:51:19.958Z,15.27
2019-05-05T04:54:05.522Z,15.34
2019-05-05T04:56:34.541Z,15.28
2019-05-05T04:59:04.058Z,15.20
2019-05-05T05:01:33.521Z,15.03
2019-05-05T05:04:20.171Z,15.03
2019-05-05T05:06:50.452Z,15.06
2019-05-05T05:09:19.078Z,15.08
2019-05-05T05:11:47.758Z,15.07
2019-05-05T05:14:16.399Z,15.19
2019-05-05T05:16:45.437Z,15.22
2019-05-05T05:19:14.077Z,15.33
2019-05-05T05:21:43.702Z,15.48
2019-05-05T05:24:14.489Z,15.52
2019-05-05T05:26:44.190Z,15.46
2019-05-05T05:29:15.016Z,15.38
2019-05-05T05:31:44.309Z,15.36
2019-05-05T05:34:14.833Z,15.26
2019-05-05T05:36:44.334Z,15.24
2019-05-05T05:39:17.685Z,15.04
2019-05-05T05:41:47.091Z,14.91
2019-05-05T05:44:17.913Z,14.88
2019-05-05T05:46:54.634Z,14.61
2019-05-05T05:49:34.723Z,14.55
2019-05-05T05:52:13.521Z,14.39
2019-05-05T05:54:34.116Z,14.18
2019-05-05T05:57:04.332Z,14.07
2019-05-05T05:59:33.953Z,14.11
2019-05-05T06:02:09.835Z,14.19
2019-05-05T06:04:34.080Z,14.27
2019-05-05T06:07:04.085Z,14.40
2019-05-05T06:09:34.471Z,14.52
2019-05-05T06:12:03.631Z,14.71
2019-05-05T06:14:34.029Z,14.96
2019-05-05T06:17:04.254Z,15.11
2019-05-05T06:19:33.772Z,15.21
2019-05-05T06:22:03.528Z,15.41
2019-05-05T06:24:34.424Z,15.51
2019-05-05T06:27:03.735Z,15.69
2019-05-05T06:29:34.564Z,15.87
2019-05-05T06:32:04.045Z,16.03
2019-05-05T06:34:33.824Z,16.14
2019-05-05T06:37:04.276Z,16.33
2019-05-05T06:39:33.555Z,16.77
2019-05-05T06:42:06.756Z,17.07
2019-05-05T06:44:37.052Z,17.28
2019-05-05T06:47:10.534Z,17.38
2019-05-05T06:49:39.254Z,17.50
2019-05-05T06:52:07.986Z,17.67
2019-05-05T06:54:36.632Z,17.54
2019-05-05T06:57:05.298Z,17.67
2019-05-05T06:59:34.903Z,17.76
2019-05-05T07:02:04.381Z,17.65
2019-05-05T07:04:33.999Z,17.88
2019-05-05T07:07:04.894Z,17.81
2019-05-05T07:09:33.713Z,17.43
2019-05-05T07:12:04.341Z,17.31
2019-05-05T07:14:33.991Z,17.79
2019-05-05T07:17:04.918Z,18.81
2019-05-05T07:19:34.436Z,19.48
2019-05-05T07:22:04.054Z,19.67
2019-05-05T07:24:34.494Z,19.87
2019-05-05T07:27:04.745Z,20.19
2019-05-05T07:29:34.263Z,20.63
2019-05-05T07:32:04.004Z,20.47
2019-05-05T07:34:49.961Z,20.42
2019-05-05T07:37:18.719Z,20.04
2019-05-05T07:39:47.363Z,20.61
2019-05-05T07:42:16.001Z,22.80
2019-05-05T07:44:44.652Z,24.07
2019-05-05T07:47:14.585Z,25.83
2019-05-05T07:49:44.166Z,26.66
2019-05-05T07:52:14.951Z,26.74
2019-05-05T07:54:43.667Z,28.44
2019-05-05T07:57:14.474Z,29.04
2019-05-05T07:59:45.004Z,28.84
2019-05-05T08:02:14.604Z,28.51
2019-05-05T08:04:43.816Z,28.14
2019-05-05T08:07:14.584Z,27.31
2019-05-05T08:09:44.463Z,26.41
2019-05-05T08:12:13.848Z,25.97
2019-05-05T08:14:44.427Z,25.79
2019-05-05T08:17:31.006Z,26.58
2019-05-05T08:20:11.818Z,29.09
2019-05-05T08:22:40.456Z,30.21
2019-05-05T08:25:16.541Z,29.79
2019-05-05T08:27:55.925Z,30.03
2019-05-05T08:30:38.498Z,29.69
2019-05-05T08:33:07.137Z,31.39
2019-05-05T08:35:35.781Z,32.51
2019-05-05T08:38:04.773Z,34.14
2019-05-05T08:40:34.624Z,36.38
2019-05-05T08:43:04.565Z,37.64
2019-05-05T08:45:34.880Z,37.04
2019-05-05T08:48:04.930Z,36.63
2019-05-05T08:50:34.897Z,35.91
2019-05-05T08:53:04.495Z,36.05
2019-05-05T08:55:34.120Z,35.69
2019-05-05T08:58:04.529Z,35.70
2019-05-05T09:00:33.774Z,34.83
2019-05-05T09:03:03.868Z,33.42
2019-05-05T09:05:34.371Z,33.23
2019-05-05T09:08:04.568Z,32.18
2019-05-05T09:10:34.282Z,32.13
2019-05-05T09:13:03.867Z,32.67
2019-05-05T09:15:33.682Z,32.46
2019-05-05T09:18:04.822Z,31.55
2019-05-05T09:20:34.768Z,30.59
2019-05-05T09:23:04.198Z,29.58
2019-05-05T09:25:40.488Z,28.36
2019-05-05T09:28:31.207Z,27.88
2019-05-05T09:30:59.917Z,27.65
2019-05-05T09:33:28.686Z,27.33
2019-05-05T09:35:57.788Z,26.86
2019-05-05T09:38:26.449Z,26.60
2019-05-05T09:40:55.186Z,26.86
2019-05-05T09:43:24.150Z,27.68
2019-05-05T09:45:54.529Z,29.19
2019-05-05T09:48:25.049Z,30.11
2019-05-05T09:50:54.157Z,31.22
2019-05-05T09:53:23.739Z,32.07
2019-05-05T09:55:54.709Z,33.96
2019-05-05T09:58:24.226Z,34.86
2019-05-05T10:00:54.725Z,34.41
2019-05-05T10:03:23.550Z,34.31
2019-05-05T10:05:54.023Z,38.16
2019-05-05T10:08:23.647Z,40.93
2019-05-05T10:10:54.568Z,42.60
2019-05-05T10:13:22.796Z,43.25
2019-05-05T10:15:51.520Z,43.91
2019-05-05T10:18:20.083Z,43.45
2019-05-05T10:20:48.735Z,42.47
2019-05-05T10:23:17.399Z,40.70
2019-05-05T10:25:47.683Z,38.45
2019-05-05T10:28:16.318Z,37.03
2019-05-05T10:30:45.036Z,35.71
2019-05-05T10:33:14.277Z,34.10
2019-05-05T10:35:43.723Z,33.23
2019-05-05T10:38:14.297Z,32.99
2019-05-05T10:40:44.651Z,32.48
2019-05-05T10:43:14.847Z,32.06
2019-05-05T10:45:44.166Z,31.04
2019-05-05T10:48:14.359Z,30.36
2019-05-05T10:50:44.456Z,30.09
2019-05-05T10:53:13.729Z,29.54
2019-05-05T10:55:42.402Z,28.92
2019-05-05T10:58:13.832Z,28.20
2019-05-05T11:00:48.757Z,27.36
2019-05-05T11:03:17.565Z,26.47
2019-05-05T11:05:46.202Z,25.84
2019-05-05T11:08:15.111Z,25.42
2019-05-05T11:10:44.964Z,25.00
2019-05-05T11:13:14.166Z,24.83
2019-05-05T11:15:44.386Z,24.49
2019-05-05T11:18:14.720Z,24.10
2019-05-05T11:20:44.833Z,23.61
2019-05-05T11:23:14.893Z,23.50
2019-05-05T11:25:44.345Z,23.65
2019-05-05T11:28:13.185Z,23.82
2019-05-05T11:30:45.095Z,23.77
2019-05-05T11:33:31.445Z,23.68
2019-05-05T11:36:19.870Z,23.60
2019-05-05T11:38:49.838Z,23.69
2019-05-05T11:41:18.564Z,23.95
2019-05-05T11:43:47.247Z,24.41
2019-05-05T11:46:15.904Z,24.83
2019-05-05T11:48:44.557Z,25.23
2019-05-05T11:51:15.051Z,25.72
2019-05-05T11:53:44.748Z,26.05
2019-05-05T11:56:14.442Z,26.06
2019-05-05T11:58:44.210Z,25.85
2019-05-05T12:01:13.843Z,25.51
2019-05-05T12:03:44.338Z,25.20
2019-05-05T12:06:14.672Z,24.90
2019-05-05T12:08:45.871Z,24.68
2019-05-05T12:11:15.018Z,24.54
2019-05-05T12:13:44.066Z,24.69
2019-05-05T12:16:14.322Z,25.01
2019-05-05T12:18:44.859Z,25.00
2019-05-05T12:21:13.952Z,24.90
2019-05-05T12:23:44.444Z,24.74
2019-05-05T12:26:27.041Z,24.55
2019-05-05T12:29:00.374Z,24.31
2019-05-05T12:31:30.651Z,24.02
2019-05-05T12:33:59.245Z,23.72
2019-05-05T12:36:27.893Z,23.61
2019-05-05T12:38:56.533Z,23.43
2019-05-05T12:41:25.179Z,23.13
2019-05-05T12:43:54.802Z,22.98
2019-05-05T12:46:33.662Z,22.88
2019-05-05T12:49:04.743Z,22.72
2019-05-05T12:51:34.279Z,22.58
2019-05-05T12:54:04.541Z,22.16
2019-05-05T12:56:34.004Z,21.94
2019-05-05T12:59:04.550Z,21.84
2019-05-05T13:01:40.745Z,21.91
2019-05-05T13:04:09.312Z,21.95
2019-05-05T13:06:38.346Z,21.76
2019-05-05T13:09:08.280Z,21.73
2019-05-05T13:11:37.189Z,21.35
2019-05-05T13:14:06.032Z,21.44
2019-05-05T13:16:34.810Z,21.36
2019-05-05T13:19:05.097Z,21.41
2019-05-05T13:21:51.635Z,21.51
2019-05-05T13:24:27.927Z,21.86
2019-05-05T13:27:09.865Z,22.13
2019-05-05T13:29:34.373Z,22.26
2019-05-05T13:32:03.698Z,22.39
2019-05-05T13:34:32.503Z,22.61
2019-05-05T13:37:01.244Z,22.84
2019-05-05T13:39:30.090Z,23.31
2019-05-05T13:41:58.757Z,23.45
2019-05-05T13:44:45.251Z,23.08
2019-05-05T13:47:13.957Z,22.64
2019-05-05T13:49:43.713Z,22.27
2019-05-05T13:52:13.909Z,21.95
2019-05-05T13:54:43.877Z,21.52
2019-05-05T13:57:14.395Z,21.55
2019-05-05T13:59:44.487Z,21.29
2019-05-05T14:02:13.750Z,21.43
2019-05-05T14:04:43.807Z,21.59
2019-05-05T14:07:12.633Z,21.67
2019-05-05T14:09:41.276Z,21.82
2019-05-05T14:12:09.916Z,21.79
2019-05-05T14:14:38.540Z,21.60
2019-05-05T14:17:07.189Z,21.66
2019-05-05T14:19:35.828Z,21.68
2019-05-05T14:22:04.678Z,21.77
2019-05-05T14:24:35.015Z,21.67
2019-05-05T14:27:04.469Z,21.76
2019-05-05T14:29:40.905Z,21.94
2019-05-05T14:32:13.385Z,22.18
2019-05-05T14:34:44.150Z,22.43
2019-05-05T14:37:29.449Z,22.65
2019-05-05T14:39:58.262Z,22.64
2019-05-05T14:42:26.998Z,22.41
2019-05-05T14:44:55.704Z,22.34
2019-05-05T14:47:24.638Z,21.94
2019-05-05T14:49:54.050Z,21.86
2019-05-05T14:52:24.527Z,21.52
2019-05-05T14:54:54.386Z,21.38
2019-05-05T14:57:24.874Z,20.86
2019-05-05T14:59:54.088Z,20.47
2019-05-05T15:02:24.367Z,20.43
2019-05-05T15:04:54.949Z,20.42
2019-05-05T15:07:34.348Z,20.35
2019-05-05T15:10:14.891Z,20.22
2019-05-05T15:12:45.160Z,19.99
2019-05-05T15:15:14.394Z,19.83
2019-05-05T15:17:43.019Z,19.76
2019-05-05T15:20:13.444Z,19.62
2019-05-05T15:22:43.691Z,19.42
2019-05-05T15:25:12.488Z,19.35
2019-05-05T15:27:41.069Z,19.27
2019-05-05T15:30:10.517Z,19.38
2019-05-05T15:32:39.231Z,19.35
2019-05-05T15:35:07.967Z,19.31
2019-05-05T15:37:36.633Z,19.32
2019-05-05T15:40:06.005Z,19.24
2019-05-05T15:42:34.650Z,19.16
2019-05-05T15:45:04.010Z,19.17
2019-05-05T15:47:34.264Z,19.00
2019-05-05T15:50:04.710Z,19.03
2019-05-05T15:52:35.112Z,19.03
2019-05-05T15:55:05.695Z,18.99
2019-05-05T15:57:34.333Z,18.92
2019-05-05T16:00:03.530Z,18.78
2019-05-05T16:02:32.243Z,18.79
2019-05-05T16:05:00.875Z,18.80
2019-05-05T16:07:29.519Z,18.80
2019-05-05T16:09:58.146Z,18.85
2019-05-05T16:12:34.012Z,18.83
2019-05-05T16:14:58.801Z,18.88
2019-05-05T16:17:29.127Z,18.92
2019-05-05T16:20:05.463Z,18.97
2019-05-05T16:22:43.534Z,19.02
2019-05-05T16:25:14.061Z,19.03
2019-05-05T16:27:44.579Z,19.07
2019-05-05T16:30:18.844Z,19.05
2019-05-05T16:32:48.591Z,19.05
2019-05-05T16:35:17.221Z,19.03
2019-05-05T16:37:45.871Z,18.95
2019-05-05T16:40:14.922Z,18.92
2019-05-05T16:42:43.833Z,18.87
2019-05-05T16:45:16.276Z,18.84
2019-05-05T16:47:44.411Z,18.83
2019-05-05T16:50:13.741Z,18.78
2019-05-05T16:52:59.199Z,18.76
2019-05-05T16:55:34.372Z,18.71
2019-05-05T16:58:04.069Z,18.64
2019-05-05T17:00:34.494Z,18.59
2019-05-05T17:03:04.203Z,18.58
2019-05-05T17:05:34.617Z,18.52
2019-05-05T17:08:04.643Z,18.48
2019-05-05T17:10:35.704Z,18.47
2019-05-05T17:13:24.147Z,18.44
2019-05-05T17:15:57.508Z,18.35
2019-05-05T17:18:36.891Z,18.31
2019-05-05T17:21:13.499Z,18.31
2019-05-05T17:23:43.457Z,18.28
2019-05-05T17:26:14.173Z,18.25
2019-05-05T17:28:44.379Z,18.17
2019-05-05T17:31:13.124Z,18.16
2019-05-05T17:33:41.767Z,18.15
2019-05-05T17:36:10.432Z,18.07
2019-05-05T17:38:39.062Z,18.10
2019-05-05T17:41:10.941Z,18.00
2019-05-05T17:43:44.799Z,17.88
2019-05-05T17:46:33.618Z,17.87
2019-05-05T17:49:09.900Z,17.88
2019-05-05T17:51:43.682Z,17.88
2019-05-05T17:54:30.581Z,17.87
2019-05-05T17:57:00.023Z,17.86
2019-05-05T17:59:28.663Z,17.82
2019-05-05T18:01:57.364Z,17.77
2019-05-05T18:04:26.019Z,17.70
2019-05-05T18:06:59.530Z,17.62
2019-05-05T18:09:29.808Z,17.57
2019-05-05T18:12:18.422Z,17.56
2019-05-05T18:14:48.724Z,17.57
2019-05-05T18:17:17.509Z,17.52
2019-05-05T18:19:46.268Z,17.44
2019-05-05T18:22:14.999Z,17.44
2019-05-05T18:24:44.582Z,17.36
2019-05-05T18:27:14.077Z,17.34
2019-05-05T18:29:44.152Z,17.30
2019-05-05T18:32:13.848Z,17.30
2019-05-05T18:34:42.701Z,17.29
2019-05-05T18:37:11.514Z,17.18
2019-05-05T18:39:40.179Z,17.13
2019-05-05T18:42:24.606Z,17.13
2019-05-05T18:44:57.450Z,17.16
2019-05-05T18:47:26.092Z,17.12
2019-05-05T18:49:54.996Z,17.07
2019-05-05T18:52:24.492Z,17.08
2019-05-05T18:54:54.446Z,17.12
2019-05-05T18:57:24.680Z,17.09
2019-05-05T18:59:54.247Z,16.99
2019-05-05T19:02:30.771Z,16.96
2019-05-05T19:05:04.735Z,16.90
2019-05-05T19:07:35.276Z,16.88
2019-05-05T19:10:04.940Z,16.86
2019-05-05T19:12:34.649Z,16.72
2019-05-05T19:15:04.465Z,16.62
2019-05-05T19:17:34.523Z,16.57
2019-05-05T19:20:05.652Z,16.46
2019-05-05T19:22:36.190Z,16.47
2019-05-05T19:25:13.387Z,16.46
2019-05-05T19:27:42.059Z,16.36
2019-05-05T19:30:10.922Z,16.32
2019-05-05T19:32:39.568Z,16.35
2019-05-05T19:35:08.263Z,16.27
2019-05-05T19:37:36.907Z,16.30
2019-05-05T19:40:06.573Z,16.25
2019-05-05T19:42:35.187Z,16.27
2019-05-05T19:45:05.657Z,16.28
2019-05-05T19:47:34.297Z,16.29
2019-05-05T19:50:17.260Z,16.41
2019-05-05T19:52:46.692Z,16.36
2019-05-05T19:55:15.476Z,16.26
2019-05-05T19:57:44.667Z,16.25
2019-05-05T20:00:14.577Z,16.26
2019-05-05T20:02:43.890Z,16.30
2019-05-05T20:05:14.300Z,16.29
2019-05-05T20:07:43.912Z,16.36
2019-05-05T20:10:14.727Z,16.33
2019-05-05T20:12:44.837Z,16.27
2019-05-05T20:15:21.186Z,16.26
2019-05-05T20:17:49.839Z,16.19
2019-05-05T20:20:18.860Z,16.00
2019-05-05T20:22:47.542Z,15.91
2019-05-05T20:25:16.178Z,15.95
2019-05-05T20:27:44.854Z,15.90
2019-05-05T20:30:14.233Z,15.91
2019-05-05T20:32:44.807Z,15.96
2019-05-05T20:35:15.192Z,16.07
2019-05-05T20:37:48.412Z,16.06
2019-05-05T20:40:18.732Z,16.09
2019-05-05T20:42:47.409Z,16.10
2019-05-05T20:45:17.787Z,16.16
2019-05-05T20:47:46.447Z,16.19
2019-05-05T20:50:15.087Z,16.23
2019-05-05T20:52:44.323Z,16.21
2019-05-05T20:55:14.084Z,16.20
2019-05-05T20:57:44.295Z,16.19
2019-05-05T21:00:14.939Z,16.19
2019-05-05T21:02:43.716Z,16.25
2019-05-05T21:05:14.469Z,16.17
2019-05-05T21:07:44.347Z,16.15
2019-05-05T21:10:14.352Z,16.14
2019-05-05T21:12:45.470Z,16.19
2019-05-05T21:15:13.794Z,16.14
2019-05-05T21:17:44.822Z,16.17
2019-05-05T21:20:14.491Z,15.91
2019-05-05T21:22:50.900Z,15.91
2019-05-05T21:25:24.043Z,15.89
2019-05-05T21:27:52.817Z,15.98
2019-05-05T21:30:21.382Z,16.02
2019-05-05T21:32:50.017Z,16.07
2019-05-05T21:35:18.649Z,16.16
2019-05-05T21:37:47.390Z,15.99
2019-05-05T21:40:17.117Z,15.98
2019-05-05T21:42:45.772Z,15.98
2019-05-05T21:45:15.297Z,15.98
2019-05-05T21:47:44.284Z,15.94
2019-05-05T21:50:14.630Z,15.91
2019-05-05T21:52:47.613Z,15.84
2019-05-05T21:55:27.096Z,15.91
2019-05-05T21:58:06.660Z,15.89
2019-05-05T22:00:52.072Z,15.85
2019-05-05T22:03:35.520Z,15.80
2019-05-05T22:06:04.951Z,15.67
2019-05-05T22:08:34.067Z,15.61
2019-05-05T22:11:03.915Z,15.55
2019-05-05T22:13:36.293Z,15.50
2019-05-05T22:16:04.120Z,15.45
2019-05-05T22:18:32.821Z,15.41
2019-05-05T22:21:14.003Z,15.38
2019-05-05T22:23:44.125Z,15.34
2019-05-05T22:26:14.596Z,15.31
2019-05-05T22:28:44.608Z,15.16
2019-05-05T22:31:14.214Z,15.11
2019-05-05T22:33:44.742Z,15.10
2019-05-05T22:36:14.065Z,15.03
2019-05-05T22:38:44.628Z,14.98
2019-05-05T22:41:15.828Z,14.94
2019-05-05T22:43:46.381Z,14.82
2019-05-05T22:46:15.022Z,14.88
2019-05-05T22:48:44.120Z,14.85
2019-05-05T22:51:14.468Z,14.85
2019-05-05T22:53:44.111Z,14.77
2019-05-05T22:56:14.801Z,14.76
2019-05-05T22:58:43.926Z,14.79
2019-05-05T23:01:13.663Z,14.81
2019-05-05T23:04:00.217Z,14.84
2019-05-05T23:06:33.631Z,14.88
2019-05-05T23:09:04.099Z,14.86
2019-05-05T23:11:32.875Z,14.96
2019-05-05T23:14:21.558Z,15.04
2019-05-05T23:16:53.712Z,15.11
2019-05-05T23:19:25.691Z,15.14
2019-05-05T23:21:58.578Z,15.15
2019-05-05T23:24:34.799Z,15.08
2019-05-05T23:27:03.905Z,15.14
2019-05-05T23:29:34.115Z,15.18
2019-05-05T23:32:03.040Z,15.20
2019-05-05T23:34:33.730Z,15.20
2019-05-05T23:37:04.217Z,15.26
2019-05-05T23:39:32.490Z,15.28
2019-05-05T23:42:01.128Z,15.30
2019-05-05T23:44:34.428Z,15.32
2019-05-05T23:47:04.416Z,15.38
2019-05-05T23:49:34.856Z,15.39
2019-05-05T23:52:04.412Z,15.44
2019-05-05T23:54:34.069Z,15.43
2019-05-05T23:57:04.747Z,15.39
2019-05-05T23:59:33.224Z,15.39
